TimeCDT,TemperatureF,Dew PointF,Humidity,Sea Level PressureIn,VisibilityMPH,Wind Direction,Wind SpeedMPH,Gust SpeedMPH,PrecipitationIn,Events,Conditions,WindDirDegrees,DateUTC
12:18 AM,43.3,35.2,73,30.15,10.0,Calm,Calm,-,N/A,,Clear,0,2013-04-27 05:18:00
12:38 AM,44.2,34.7,69,30.16,10.0,Calm,Calm,-,N/A,,Clear,0,2013-04-27 05:38:00
12:57 AM,43.3,34.3,71,30.16,10.0,Calm,Calm,-,N/A,,Clear,0,2013-04-27 05:57:00
1:18 AM,43.5,34.2,70,30.15,10.0,Calm,Calm,-,N/A,,Clear,0,2013-04-27 06:18:00
1:38 AM,44.6,33.8,66,30.15,10.0,Calm,Calm,-,N/A,,Clear,0,2013-04-27 06:38:00
1:57 AM,43.5,33.1,67,30.15,10.0,Calm,Calm,-,N/A,,Clear,0,2013-04-27 06:57:00
2:18 AM,43.7,32.5,65,30.14,10.0,Calm,Calm,-,N/A,,Clear,0,2013-04-27 07:18:00
2:38 AM,43.0,32.4,66,30.14,10.0,Calm,Calm,-,N/A,,Clear,0,2013-04-27 07:38:00
2:57 AM,41.0,32.0,70,30.14,10.0,Calm,Calm,-,N/A,,Clear,0,2013-04-27 07:57:00
3:18 AM,41.4,32.0,69,30.13,10.0,Calm,Calm,-,N/A,,Clear,0,2013-04-27 08:18:00
3:38 AM,42.4,32.0,67,30.13,10.0,Calm,Calm,-,N/A,,Clear,0,2013-04-27 08:38:00
3:58 AM,44.2,32.0,62,30.12,10.0,Calm,Calm,-,N/A,,Clear,0,2013-04-27 08:58:00
4:17 AM,40.1,31.8,72,30.13,10.0,Calm,Calm,-,N/A,,Clear,0,2013-04-27 09:17:00
4:37 AM,41.4,32.0,69,30.12,10.0,Calm,Calm,-,N/A,,Clear,0,2013-04-27 09:37:00
4:58 AM,41.0,32.0,70,30.12,10.0,Calm,Calm,-,N/A,,Clear,0,2013-04-27 09:58:00
5:18 AM,39.2,31.8,75,30.11,10.0,Calm,Calm,-,N/A,,Clear,0,2013-04-27 10:18:00
5:37 AM,40.3,31.8,72,30.11,10.0,Calm,Calm,-,N/A,,Clear,0,2013-04-27 10:37:00
5:58 AM,40.8,31.6,70,30.11,10.0,Calm,Calm,-,N/A,,Clear,0,2013-04-27 10:58:00
6:18 AM,41.5,32.0,69,30.10,10.0,Calm,Calm,-,N/A,,Clear,0,2013-04-27 11:18:00
6:38 AM,42.3,32.0,67,30.10,10.0,Calm,Calm,-,N/A,,Clear,0,2013-04-27 11:38:00
6:58 AM,41.4,32.0,69,30.10,10.0,Calm,Calm,-,N/A,,Clear,0,2013-04-27 11:58:00
7:17 AM,40.3,32.0,72,30.10,10.0,Calm,Calm,-,N/A,,Clear,0,2013-04-27 12:17:00
7:38 AM,42.4,33.6,71,30.10,10.0,Calm,Calm,-,N/A,,Clear,0,2013-04-27 12:38:00
7:58 AM,45.5,34.2,65,30.10,10.0,SSW,10.4,-,N/A,,Clear,210,2013-04-27 12:58:00
8:18 AM,48.0,35.8,63,30.10,10.0,SW,8.1,-,N/A,,Clear,220,2013-04-27 13:18:00
8:38 AM,50.0,37.0,61,30.10,10.0,SW,6.9,-,N/A,,Clear,230,2013-04-27 13:38:00
8:58 AM,52.0,37.0,57,30.10,10.0,SW,8.1,-,N/A,,Clear,220,2013-04-27 13:58:00
9:18 AM,54.0,38.3,55,30.09,10.0,SSW,8.1,-,N/A,,Clear,210,2013-04-27 14:18:00
9:38 AM,55.8,39.0,53,30.09,10.0,SSW,9.2,-,N/A,,Clear,210,2013-04-27 14:38:00
9:57 AM,57.6,38.1,48,30.08,10.0,SSW,10.4,-,N/A,,Clear,210,2013-04-27 14:57:00
10:18 AM,59.4,36.1,42,30.08,10.0,SSW,10.4,-,N/A,,Clear,210,2013-04-27 15:18:00
10:38 AM,60.3,38.5,44,30.08,10.0,Calm,Calm,-,N/A,,Clear,0,2013-04-27 15:38:00
10:57 AM,61.7,40.1,45,30.08,10.0,Calm,Calm,-,N/A,,Clear,0,2013-04-27 15:57:00
11:17 AM,62.4,37.6,40,30.08,10.0,Calm,Calm,-,N/A,,Clear,0,2013-04-27 16:17:00
11:38 AM,63.5,39.4,41,30.08,10.0,SSW,9.2,-,N/A,,Clear,200,2013-04-27 16:38:00
11:58 AM,64.0,37.8,38,30.08,10.0,Calm,Calm,-,N/A,,Clear,0,2013-04-27 16:58:00
12:18 PM,64.6,38.3,38,30.07,10.0,SW,6.9,-,N/A,,Clear,220,2013-04-27 17:18:00
12:38 PM,65.3,35.2,33,30.07,10.0,SSW,9.2,-,N/A,,Clear,200,2013-04-27 17:38:00
12:58 PM,66.0,36.7,34,30.06,10.0,SW,5.8,-,N/A,,Clear,220,2013-04-27 17:58:00
1:17 PM,66.2,34.7,31,30.04,10.0,Calm,Calm,-,N/A,,Clear,0,2013-04-27 18:17:00
1:37 PM,67.1,35.1,31,30.03,10.0,Calm,Calm,-,N/A,,Clear,0,2013-04-27 18:37:00
1:57 PM,67.8,34.5,29,30.02,10.0,Calm,Calm,-,N/A,,Clear,0,2013-04-27 18:57:00
2:17 PM,68.5,34.0,28,30.01,10.0,Calm,Calm,-,N/A,,Clear,0,2013-04-27 19:17:00
2:37 PM,68.5,33.3,27,30.01,10.0,Calm,Calm,-,N/A,,Clear,0,2013-04-27 19:37:00
2:57 PM,69.4,30.9,24,30.00,10.0,Calm,Calm,-,N/A,,Clear,0,2013-04-27 19:57:00
3:18 PM,69.8,32.2,25,29.99,10.0,Calm,Calm,-,N/A,,Clear,0,2013-04-27 20:18:00
3:37 PM,69.8,29.3,22,29.99,10.0,Calm,Calm,-,N/A,,Clear,0,2013-04-27 20:37:00
3:58 PM,70.0,30.9,24,29.97,10.0,Calm,Calm,-,N/A,,Clear,0,2013-04-27 20:58:00
4:18 PM,70.7,32.5,24,29.96,10.0,Calm,Calm,-,N/A,,Clear,0,2013-04-27 21:18:00
4:38 PM,70.7,32.4,24,29.96,10.0,Calm,Calm,-,N/A,,Clear,0,2013-04-27 21:38:00
4:57 PM,70.7,30.6,23,29.95,10.0,Calm,Calm,-,N/A,,Clear,0,2013-04-27 21:57:00
5:17 PM,70.7,29.7,22,29.94,10.0,Calm,Calm,-,N/A,,Clear,0,2013-04-27 22:17:00
5:37 PM,70.5,31.8,24,29.94,10.0,Calm,Calm,-,N/A,,Clear,0,2013-04-27 22:37:00
5:58 PM,70.7,30.7,23,29.94,10.0,Calm,Calm,-,N/A,,Clear,0,2013-04-27 22:58:00
6:18 PM,70.7,31.3,23,29.93,10.0,Calm,Calm,-,N/A,,Clear,0,2013-04-27 23:18:00
6:38 PM,70.0,31.3,24,29.92,10.0,Calm,Calm,-,N/A,,Clear,0,2013-04-27 23:38:00
6:58 PM,70.0,33.8,26,29.92,10.0,Calm,Calm,-,N/A,,Clear,0,2013-04-27 23:58:00
7:18 PM,69.6,31.6,24,29.91,10.0,Calm,Calm,-,N/A,,Clear,0,2013-04-28 00:18:00
7:37 PM,67.1,33.1,28,29.91,10.0,Calm,Calm,-,N/A,,Clear,0,2013-04-28 00:37:00
7:57 PM,63.7,39.0,40,29.91,10.0,Calm,Calm,-,N/A,,Clear,0,2013-04-28 00:57:00
8:17 PM,60.6,39.7,46,29.90,10.0,Calm,Calm,-,N/A,,Clear,0,2013-04-28 01:17:00
8:37 PM,62.8,35.2,36,29.89,10.0,Calm,Calm,-,N/A,,Clear,0,2013-04-28 01:37:00
8:57 PM,62.6,33.4,34,29.89,10.0,Calm,Calm,-,N/A,,Clear,0,2013-04-28 01:57:00
9:17 PM,61.0,33.8,36,29.90,10.0,Calm,Calm,-,N/A,,Clear,0,2013-04-28 02:17:00
9:38 PM,60.6,34.2,37,29.89,10.0,Calm,Calm,-,N/A,,Clear,0,2013-04-28 02:38:00
9:57 PM,59.2,34.9,40,29.89,10.0,South,8.1,-,N/A,,Clear,180,2013-04-28 02:57:00
10:18 PM,59.4,36.5,43,29.88,10.0,South,10.4,-,N/A,,Clear,190,2013-04-28 03:18:00
10:37 PM,59.4,37.6,44,29.88,10.0,South,12.7,17.3,N/A,,Clear,190,2013-04-28 03:37:00
10:57 PM,57.9,37.8,47,29.88,10.0,SSW,13.8,17.3,N/A,,Clear,200,2013-04-28 03:57:00
11:18 PM,57.0,38.5,50,29.87,10.0,SSW,13.8,-,N/A,,Clear,200,2013-04-28 04:18:00
11:38 PM,56.3,39.2,53,29.86,10.0,SSW,16.1,-,N/A,,Clear,200,2013-04-28 04:38:00
11:58 PM,55.6,39.6,55,29.86,10.0,SSW,15.0,-,N/A,,Clear,200,2013-04-28 04:58:00